Time;durP1;ratioP1;P1;durP2;ratioP2;P2;SDS_P1;SDS_P2;PMS_P1;PMS_P2;Temp;Humidity;BMP_temperature;BMP_pressure;BME280_temperature;BME280_humidity;BME280_pressure;Samples;Min_cycle;Max_cycle;Signal;HPM_P1;HPM_P2
2022/04/21 00:00:07;;;;;;;;;;;;;;;;;;346763;28;841;-27
2022/04/21 00:00:17;;;;;;;;;;;;;;;;;;346724;28;948;-27
2022/04/21 00:00:27;;;;;;;;;;;;;;;;;;346565;28;887;-29
2022/04/21 00:00:38;;;;;;;;;;;;;;;;;;346431;28;834;-28
2022/04/21 00:00:48;;;;;;;;;;;;;;;;;;346670;28;880;-27
2022/04/21 00:00:59;;;;;;;;;;;;;;;;;;346574;28;954;-29
2022/04/21 00:01:09;;;;;;;;;;;;;;;;;;346649;28;976;-29
2022/04/21 00:01:19;;;;;;;;;;;;;;;;;;346673;28;999;-28
2022/04/21 00:01:31;;;;;;;;;;;;;;;;;;346447;28;1018;-31
2022/04/21 00:01:41;;;;;;;;;;;;;;;;;;346714;28;889;-29
2022/04/21 00:01:51;;;;;;;;;;;;;;;;;;346577;28;877;-28
2022/04/21 00:02:02;;;;;;;;;;;;;;;;;;346629;28;976;-27
2022/04/21 00:02:12;;;;;;;;;;;;;;;;;;346568;28;947;-27
2022/04/21 00:02:22;;;;;;;;;;;;;;;;;;346679;28;952;-27
2022/04/21 00:02:33;;;;;;;;;;;;;;;;;;346479;28;953;-27
2022/04/21 00:02:44;;;;;;;;;;;;;;;;;;346513;28;1278;-28
2022/04/21 00:02:54;;;;;;;;;;;;;;;;;;346648;28;853;-27
2022/04/21 00:03:05;;;;;;;;;;;;;;;;;;346661;28;881;-27
2022/04/21 00:03:15;;;;;;;;;;;;;;;;;;346657;28;870;-27
2022/04/21 00:03:25;;;;;;;;;;;;;;;;;;346551;28;975;-27
2022/04/21 00:03:36;;;;;;;;;;;;;;;;;;346443;28;912;-27
2022/04/21 00:03:46;;;;;;;;;;;;;;;;;;346652;28;810;-27
2022/04/21 00:03:56;;;;;;;;;;;;;;;;;;346574;28;965;-27
2022/04/21 00:04:07;;;;;;;;;;;;;;;;;;346655;28;885;-27
2022/04/21 00:04:17;;;;;;;;;;;;;;;;;;346698;28;811;-27
2022/04/21 00:04:27;;;;;;;;;;;;;;;;;;346550;28;892;-27
2022/04/21 00:04:37;;;;;;;;;;;;;;;;;;346255;28;1083;-27
2022/04/21 00:04:48;;;;;;;;;;;;;;;;;;346680;28;751;-28
2022/04/21 00:04:58;;;;;;;;;;;;;;;;;;346653;28;873;-27
2022/04/21 00:05:09;;;;;;;;;;;;;;;;;;346585;28;977;-27
2022/04/21 00:05:20;;;;;;;;;;;;;;;;;;346677;28;794;-27
2022/04/21 00:05:30;;;;;;;;;;;;;;;;;;346489;28;965;-27
2022/04/21 00:05:41;;;;;;;;;;;;;;;;;;346627;28;881;-27
2022/04/21 00:05:51;;;;;;;;;;;;;;;;;;346535;28;1054;-27
2022/04/21 00:06:02;;;;;;;;;;;;;;;;;;346650;28;874;-27
2022/04/21 00:06:12;;;;;;;;;;;;;;;;;;346656;28;790;-27
2022/04/21 00:06:22;;;;;;;;;;;;;;;;;;346579;28;991;-26
2022/04/21 00:06:33;;;;;;;;;;;;;;;;;;346446;28;917;-26
2022/04/21 00:06:44;;;;;;;;;;;;;;;;;;346605;28;949;-27
2022/04/21 00:06:54;;;;;;;;;;;;;;;;;;346455;28;921;-27
2022/04/21 00:07:05;;;;;;;;;;;;;;;;;;346617;28;827;-26
2022/04/21 00:07:15;;;;;;;;;;;;;;;;;;346663;28;778;-27
2022/04/21 00:07:25;;;;;;;;;;;;;;;;;;346618;28;802;-27
2022/04/21 00:07:36;;;;;;;;;;;;;;;;;;346300;28;918;-26
2022/04/21 00:07:48;;;;;;;;;;;;;;;;;;346751;28;889;-27
2022/04/21 00:07:58;;;;;;;;;;;;;;;;;;346663;28;826;-27
2022/04/21 00:08:09;;;;;;;;;;;;;;;;;;346495;28;905;-27
2022/04/21 00:08:20;;;;;;;;;;;;;;;;;;346672;28;837;-27
2022/04/21 00:08:30;;;;;;;;;;;;;;;;;;346402;28;885;-27
2022/04/21 00:08:41;;;;;;;;;;;;;;;;;;346630;28;873;-29
2022/04/21 00:08:51;;;;;;;;;;;;;;;;;;346649;28;960;-26
2022/04/21 00:09:02;;;;;;;;;;;;;;;;;;346684;28;799;-27
2022/04/21 00:09:12;;;;;;;;;;;;;;;;;;346667;28;873;-27
2022/04/21 00:09:22;;;;;;;;;;;;;;;;;;346460;28;937;-27
2022/04/21 00:09:33;;;;;;;;;;;;;;;;;;344995;28;905;-27
2022/04/21 00:09:43;;;;;;;;;;;;;;;;;;345134;28;933;-27
2022/04/21 00:09:53;;;;;;;;;;;;;;;;;;345068;28;1147;-27
2022/04/21 00:10:07;;;;;;;;;;;;;;;;;;345145;28;948;-27
2022/04/21 00:10:17;;;;;;;;;;;;;;;;;;345198;28;1016;-27
2022/04/21 00:10:28;;;;;;;;;;;;;;;;;;345176;28;921;-27
2022/04/21 00:10:38;;;;;;;;;;;;;;;;;;344850;28;1039;-28
2022/04/21 00:10:49;;;;;;;;;;;;;;;;;;345204;28;968;-27
2022/04/21 00:10:59;;;;;;;;;;;;;;;;;;345135;28;984;-27
2022/04/21 00:11:09;;;;;;;;;;;;;;;;;;345090;28;865;-27
2022/04/21 00:11:20;;;;;;;;;;;;;;;;;;345213;28;889;-27
2022/04/21 00:11:30;;;;;;;;;;;;;;;;;;345926;28;952;-27
2022/04/21 00:11:40;;;;;;;;;;;;;;;;;;345121;28;928;-27
2022/04/21 00:11:51;;;;;;;;;;;;;;;;;;345116;28;863;-27
2022/04/21 00:12:02;;;;;;;;;;;;;;;;;;345171;28;842;-27
2022/04/21 00:12:12;;;;;;;;;;;;;;;;;;345168;28;873;-27
2022/04/21 00:12:22;;;;;;;;;;;;;;;;;;345091;28;979;-27
2022/04/21 00:12:34;;;;;;;;;;;;;;;;;;344956;28;893;-27
2022/04/21 00:12:44;;;;;;;;;;;;;;;;;;345246;28;799;-28
2022/04/21 00:12:55;;;;;;;;;;;;;;;;;;345084;28;966;-27
2022/04/21 00:13:07;;;;;;;;;;;;;;;;;;345149;28;957;-27
2022/04/21 00:13:17;;;;;;;;;;;;;;;;;;345195;28;972;-27
2022/04/21 00:13:27;;;;;;;;;;;;;;;;;;345183;28;1131;-27
2022/04/21 00:13:38;;;;;;;;;;;;;;;;;;345738;28;940;-32
2022/04/21 00:13:48;;;;;;;;;;;;;;;;;;346618;28;818;-27
2022/04/21 00:13:58;;;;;;;;;;;;;;;;;;346643;28;968;-27
2022/04/21 00:14:08;;;;;;;;;;;;;;;;;;346492;28;958;-27
2022/04/21 00:14:19;;;;;;;;;;;;;;;;;;346670;28;921;-27
2022/04/21 00:14:30;;;;;;;;;;;;;;;;;;346539;28;747;-27
2022/04/21 00:14:40;;;;;;;;;;;;;;;;;;346602;28;1198;-27
2022/04/21 00:14:50;;;;;;;;;;;;;;;;;;346562;28;1103;-27
2022/04/21 00:15:02;;;;;;;;;;;;;;;;;;346566;28;894;-27
2022/04/21 00:15:13;;;;;;;;;;;;;;;;;;346643;28;865;-27
2022/04/21 00:15:24;;;;;;;;;;;;;;;;;;346548;28;1002;-27
2022/04/21 00:15:34;;;;;;;;;;;;;;;;;;346461;28;1043;-27
2022/04/21 00:15:45;;;;;;;;;;;;;;;;;;346676;28;960;-27
2022/04/21 00:15:55;;;;;;;;;;;;;;;;;;346579;28;1084;-27
2022/04/21 00:16:05;;;;;;;;;;;;;;;;;;346528;28;937;-27
2022/04/21 00:16:15;;;;;;;;;;;;;;;;;;346555;28;1906;-27
2022/04/21 00:16:26;;;;;;;;;;;;;;;;;;346583;28;885;-27
2022/04/21 00:16:36;;;;;;;;;;;;;;;;;;346321;28;1114;-27
2022/04/21 00:16:46;;;;;;;;;;;;;;;;;;346645;28;806;-27
2022/04/21 00:16:57;;;;;;;;;;;;;;;;;;346650;28;897;-27
2022/04/21 00:17:11;;;;;;;;;;;;;;;;;;346500;28;950;-27
2022/04/21 00:17:21;;;;;;;;;;;;;;;;;;346687;28;940;-34
2022/04/21 00:17:32;;;;;;;;;;;;;;;;;;346418;28;889;-27
2022/04/21 00:17:42;;;;;;;;;;;;;;;;;;346476;28;1005;-27
2022/04/21 00:17:52;;;;;;;;;;;;;;;;;;346672;28;968;-27
2022/04/21 00:18:03;;;;;;;;;;;;;;;;;;346541;28;1339;-27
2022/04/21 00:18:13;;;;;;;;;;;;;;;;;;346659;28;837;-27
2022/04/21 00:18:23;;;;;;;;;;;;;;;;;;346571;28;955;-30
2022/04/21 00:18:34;;;;;;;;;;;;;;;;;;346402;28;941;-27
2022/04/21 00:18:46;;;;;;;;;;;;;;;;;;346655;28;979;-27
2022/04/21 00:18:56;;;;;;;;;;;;;;;;;;346567;28;1111;-27
2022/04/21 00:19:06;;;;;;;;;;;;;;;;;;346576;28;858;-27
2022/04/21 00:19:17;;;;;;;;;;;;;;;;;;346610;28;924;-27
2022/04/21 00:19:27;;;;;;;;;;;;;;;;;;346629;28;961;-27
2022/04/21 00:19:37;;;;;;;;;;;;;;;;;;346326;28;1100;-27
2022/04/21 00:19:48;;;;;;;;;;;;;;;;;;346632;28;961;-27
2022/04/21 00:19:59;;;;;;;;;;;;;;;;;;346705;28;901;-27
2022/04/21 00:20:09;;;;;;;;;;;;;;;;;;346278;28;1146;-27
2022/04/21 00:20:20;;;;;;;;;;;;;;;;;;345088;28;813;-27
2022/04/21 00:20:30;;;;;;;;;;;;;;;;;;344945;28;822;-28
2022/04/21 00:20:40;;;;;;;;;;;;;;;;;;345005;28;1035;-27
2022/04/21 00:20:51;;;;;;;;;;;;;;;;;;345231;28;803;-27
2022/04/21 00:21:02;;;;;;;;;;;;;;;;;;345170;28;834;-27
2022/04/21 00:21:12;;;;;;;;;;;;;;;;;;345017;28;799;-27
2022/04/21 00:23:25;;;;;;;;;;;;;;;;;;344851;28;1117;-27
2022/04/21 00:23:29;;;;;;;;;;;;;;;;;;346636;28;838;-27
2022/04/21 00:23:39;;;;;;;;;;;;;;;;;;346513;28;881;-27
2022/04/21 00:23:49;;;;;;;;;;;;;;;;;;346571;28;993;-27
2022/04/21 00:24:00;;;;;;;;;;;;;;;;;;346687;28;915;-27
2022/04/21 00:24:10;;;;;;;;;;;;;;;;;;344958;28;1213;-27
2022/04/21 00:24:20;;;;;;;;;;;;;;;;;;344989;28;1054;-27
2022/04/21 00:24:30;;;;;;;;;;;;;;;;;;344932;28;937;-27
2022/04/21 00:24:41;;;;;;;;;;;;;;;;;;345218;28;795;-27
2022/04/21 00:24:51;;;;;;;;;;;;;;;;;;345117;28;838;-27
2022/04/21 00:25:02;;;;;;;;;;;;;;;;;;345072;28;990;-27
2022/04/21 00:25:12;;;;;;;;;;;;;;;;;;345078;28;842;-27
2022/04/21 00:25:23;;;;;;;;;;;;;;;;;;345197;28;882;-27
2022/04/21 00:25:33;;;;;;;;;;;;;;;;;;344739;28;970;-26
2022/04/21 00:25:44;;;;;;;;;;;;;;;;;;345144;28;1000;-26
2022/04/21 00:25:55;;;;;;;;;;;;;;;;;;345230;28;818;-31
2022/04/21 00:26:06;;;;;;;;;;;;;;;;;;345783;28;1175;-27
2022/04/21 00:26:16;;;;;;;;;;;;;;;;;;346606;28;822;-27
2022/04/21 00:26:27;;;;;;;;;;;;;;;;;;346652;28;890;-27
2022/04/21 00:26:37;;;;;;;;;;;;;;;;;;346375;28;965;-27
2022/04/21 00:26:47;;;;;;;;;;;;;;;;;;346463;28;1156;-27
2022/04/21 00:26:58;;;;;;;;;;;;;;;;;;346584;28;817;-27
2022/04/21 00:27:08;;;;;;;;;;;;;;;;;;345157;28;1165;-27
2022/04/21 00:27:19;;;;;;;;;;;;;;;;;;345008;28;1151;-27
2022/04/21 00:27:29;;;;;;;;;;;;;;;;;;345139;28;890;-27
2022/04/21 00:27:40;;;;;;;;;;;;;;;;;;345143;28;1621;-27
2022/04/21 00:27:51;;;;;;;;;;;;;;;;;;345178;28;866;-27
2022/04/21 00:28:01;;;;;;;;;;;;;;;;;;345113;28;1009;-27
2022/04/21 00:28:11;;;;;;;;;;;;;;;;;;345095;28;874;-27
2022/04/21 00:28:22;;;;;;;;;;;;;;;;;;345129;28;930;-27
2022/04/21 00:28:32;;;;;;;;;;;;;;;;;;344855;28;1151;-27
2022/04/21 00:28:42;;;;;;;;;;;;;;;;;;345220;28;906;-27
2022/04/21 00:28:53;;;;;;;;;;;;;;;;;;345116;28;929;-27
2022/04/21 00:29:03;;;;;;;;;;;;;;;;;;345112;28;973;-27
2022/04/21 00:29:13;;;;;;;;;;;;;;;;;;345081;28;909;-27
2022/04/21 00:29:24;;;;;;;;;;;;;;;;;;345118;28;952;-27
2022/04/21 00:29:35;;;;;;;;;;;;;;;;;;345386;28;877;-27
2022/04/21 00:29:45;;;;;;;;;;;;;;;;;;346558;28;938;-27
2022/04/21 00:29:56;;;;;;;;;;;;;;;;;;346549;28;857;-27
2022/04/21 00:30:07;;;;;;;;;;;;;;;;;;346693;28;849;-27
2022/04/21 00:30:17;;;;;;;;;;;;;;;;;;346503;28;1133;-27
2022/04/21 00:30:28;;;;;;;;;;;;;;;;;;346671;28;810;-27
2022/04/21 00:30:39;;;;;;;;;;;;;;;;;;346409;28;920;-27
2022/04/21 00:30:49;;;;;;;;;;;;;;;;;;346550;28;1791;-27
2022/04/21 00:30:59;;;;;;;;;;;;;;;;;;346447;28;991;-27
2022/04/21 00:31:10;;;;;;;;;;;;;;;;;;346663;28;893;-27
2022/04/21 00:31:20;;;;;;;;;;;;;;;;;;346564;28;988;-27
2022/04/21 00:31:30;;;;;;;;;;;;;;;;;;346331;28;948;-27
2022/04/21 00:31:40;;;;;;;;;;;;;;;;;;346667;28;985;-27
2022/04/21 00:31:51;;;;;;;;;;;;;;;;;;346579;28;972;-27
2022/04/21 00:32:01;;;;;;;;;;;;;;;;;;346571;28;1004;-27
2022/04/21 00:32:12;;;;;;;;;;;;;;;;;;346444;28;1063;-27
2022/04/21 00:32:22;;;;;;;;;;;;;;;;;;346562;28;992;-27
2022/04/21 00:32:33;;;;;;;;;;;;;;;;;;346525;28;846;-27
2022/04/21 00:32:44;;;;;;;;;;;;;;;;;;346524;28;951;-27
2022/04/21 00:32:54;;;;;;;;;;;;;;;;;;346704;28;968;-27
2022/04/21 00:33:05;;;;;;;;;;;;;;;;;;346647;28;767;-26
2022/04/21 00:33:16;;;;;;;;;;;;;;;;;;346542;28;953;-27
2022/04/21 00:33:26;;;;;;;;;;;;;;;;;;346556;28;921;-27
2022/04/21 00:33:36;;;;;;;;;;;;;;;;;;346317;28;929;-27
2022/04/21 00:33:47;;;;;;;;;;;;;;;;;;346722;28;842;-27
2022/04/21 00:33:57;;;;;;;;;;;;;;;;;;346505;28;950;-27
2022/04/21 00:34:09;;;;;;;;;;;;;;;;;;346688;28;937;-27
2022/04/21 00:34:19;;;;;;;;;;;;;;;;;;346655;28;902;-27
2022/04/21 00:34:31;;;;;;;;;;;;;;;;;;346386;28;1109;-27
2022/04/21 00:34:41;;;;;;;;;;;;;;;;;;346545;28;1726;-27
2022/04/21 00:34:52;;;;;;;;;;;;;;;;;;346591;28;956;-27
2022/04/21 00:35:06;;;;;;;;;;;;;;;;;;346606;28;890;-27
2022/04/21 00:35:17;;;;;;;;;;;;;;;;;;346580;28;680;-27
2022/04/21 00:35:27;;;;;;;;;;;;;;;;;;346677;28;932;-28
2022/04/21 00:35:38;;;;;;;;;;;;;;;;;;346413;28;1004;-27
2022/04/21 00:35:48;;;;;;;;;;;;;;;;;;346529;28;1155;-27
2022/04/21 00:35:58;;;;;;;;;;;;;;;;;;346566;28;980;-27
2022/04/21 00:36:09;;;;;;;;;;;;;;;;;;346589;28;933;-27
2022/04/21 00:36:20;;;;;;;;;;;;;;;;;;346465;28;1439;-27
2022/04/21 00:36:30;;;;;;;;;;;;;;;;;;346433;28;775;-27
2022/04/21 00:36:40;;;;;;;;;;;;;;;;;;346676;28;771;-27
2022/04/21 00:36:51;;;;;;;;;;;;;;;;;;346510;28;977;-27
2022/04/21 00:37:01;;;;;;;;;;;;;;;;;;346628;28;811;-27
2022/04/21 00:37:11;;;;;;;;;;;;;;;;;;346642;28;956;-27
2022/04/21 00:37:22;;;;;;;;;;;;;;;;;;346549;28;937;-28
2022/04/21 00:37:32;;;;;;;;;;;;;;;;;;346227;28;1132;-27
2022/04/21 00:37:47;;;;;;;;;;;;;;;;;;346653;28;961;-27
2022/04/21 00:37:57;;;;;;;;;;;;;;;;;;346640;28;973;-27
2022/04/21 00:38:08;;;;;;;;;;;;;;;;;;346528;28;996;-27
2022/04/21 00:38:18;;;;;;;;;;;;;;;;;;346619;28;1837;-27
2022/04/21 00:38:28;;;;;;;;;;;;;;;;;;346576;28;960;-27
2022/04/21 00:38:39;;;;;;;;;;;;;;;;;;346202;28;1148;-27
2022/04/21 00:38:49;;;;;;;;;;;;;;;;;;346608;28;873;-28
2022/04/21 00:38:59;;;;;;;;;;;;;;;;;;346596;28;914;-26
2022/04/21 00:39:09;;;;;;;;;;;;;;;;;;346606;28;913;-27
2022/04/21 00:39:20;;;;;;;;;;;;;;;;;;346480;28;879;-27
2022/04/21 00:39:31;;;;;;;;;;;;;;;;;;346408;28;1115;-27
2022/04/21 00:39:41;;;;;;;;;;;;;;;;;;346622;28;782;-27
2022/04/21 00:39:51;;;;;;;;;;;;;;;;;;346484;28;1080;-27
2022/04/21 00:40:02;;;;;;;;;;;;;;;;;;346509;28;889;-27
2022/04/21 00:40:14;;;;;;;;;;;;;;;;;;346616;28;885;-27
2022/04/21 00:40:29;;;;;;;;;;;;;;;;;;346589;28;952;-28
2022/04/21 00:40:39;;;;;;;;;;;;;;;;;;346431;28;988;-27
2022/04/21 00:40:50;;;;;;;;;;;;;;;;;;346624;28;886;-27
2022/04/21 00:41:00;;;;;;;;;;;;;;;;;;346657;28;786;-27
2022/04/21 00:41:11;;;;;;;;;;;;;;;;;;345010;28;970;-27
2022/04/21 00:41:21;;;;;;;;;;;;;;;;;;345131;28;771;-27
2022/04/21 00:41:31;;;;;;;;;;;;;;;;;;344899;28;897;-27
2022/04/21 00:41:42;;;;;;;;;;;;;;;;;;345016;28;915;-35
2022/04/21 00:41:56;;;;;;;;;;;;;;;;;;345190;28;890;-27
2022/04/21 00:42:07;;;;;;;;;;;;;;;;;;345097;28;906;-27
2022/04/21 00:42:18;;;;;;;;;;;;;;;;;;345015;28;1006;-27
2022/04/21 00:42:28;;;;;;;;;;;;;;;;;;345154;28;820;-26
2022/04/21 00:42:38;;;;;;;;;;;;;;;;;;344842;28;890;-28
2022/04/21 00:42:49;;;;;;;;;;;;;;;;;;345164;28;901;-27
2022/04/21 00:43:00;;;;;;;;;;;;;;;;;;345061;28;1029;-26
2022/04/21 00:43:10;;;;;;;;;;;;;;;;;;346431;28;889;-27
2022/04/21 00:43:22;;;;;;;;;;;;;;;;;;345083;28;906;-27
2022/04/21 00:43:33;;;;;;;;;;;;;;;;;;344767;28;1002;-27
2022/04/21 00:43:43;;;;;;;;;;;;;;;;;;345147;28;1197;-27
2022/04/21 00:43:54;;;;;;;;;;;;;;;;;;345132;28;957;-28
2022/04/21 00:44:04;;;;;;;;;;;;;;;;;;344935;28;847;-27
2022/04/21 00:44:14;;;;;;;;;;;;;;;;;;345197;28;953;-28
2022/04/21 00:44:25;;;;;;;;;;;;;;;;;;345151;28;1000;-27
2022/04/21 00:44:35;;;;;;;;;;;;;;;;;;344864;28;889;-27
2022/04/21 00:44:46;;;;;;;;;;;;;;;;;;345021;28;985;-27
2022/04/21 00:44:56;;;;;;;;;;;;;;;;;;345164;28;842;-27
2022/04/21 00:45:07;;;;;;;;;;;;;;;;;;345060;28;921;-27
2022/04/21 00:45:18;;;;;;;;;;;;;;;;;;345905;28;972;-27
2022/04/21 00:45:29;;;;;;;;;;;;;;;;;;346582;28;893;-27
2022/04/21 00:45:39;;;;;;;;;;;;;;;;;;346400;28;996;-27
2022/04/21 00:45:53;;;;;;;;;;;;;;;;;;346649;28;807;-27
2022/04/21 00:46:03;;;;;;;;;;;;;;;;;;346620;28;815;-27
2022/04/21 00:46:17;;;;;;;;;;;;;;;;;;346631;28;889;-27
2022/04/21 00:46:27;;;;;;;;;;;;;;;;;;346475;28;874;-27
2022/04/21 00:46:38;;;;;;;;;;;;;;;;;;346324;28;787;-27
2022/04/21 00:46:48;;;;;;;;;;;;;;;;;;346577;28;1048;-27
2022/04/21 00:47:02;;;;;;;;;;;;;;;;;;346673;28;933;-27
2022/04/21 00:47:13;;;;;;;;;;;;;;;;;;346605;28;826;-27
2022/04/21 00:47:23;;;;;;;;;;;;;;;;;;346631;28;929;-27
2022/04/21 00:47:33;;;;;;;;;;;;;;;;;;346394;28;1046;-27
2022/04/21 00:47:45;;;;;;;;;;;;;;;;;;346450;28;1066;-27
2022/04/21 00:47:57;;;;;;;;;;;;;;;;;;345040;28;1119;-27
2022/04/21 00:48:07;;;;;;;;;;;;;;;;;;345069;28;894;-27
2022/04/21 00:48:17;;;;;;;;;;;;;;;;;;345000;28;1786;-27
2022/04/21 00:48:29;;;;;;;;;;;;;;;;;;345195;28;862;-27
2022/04/21 00:48:39;;;;;;;;;;;;;;;;;;344908;28;822;-27
2022/04/21 00:48:49;;;;;;;;;;;;;;;;;;345079;28;851;-27
2022/04/21 00:49:00;;;;;;;;;;;;;;;;;;345181;28;1008;-27
2022/04/21 00:49:10;;;;;;;;;;;;;;;;;;345074;28;937;-27
2022/04/21 00:49:21;;;;;;;;;;;;;;;;;;345095;28;819;-27
2022/04/21 00:49:32;;;;;;;;;;;;;;;;;;344834;28;959;-27
2022/04/21 00:49:43;;;;;;;;;;;;;;;;;;345155;28;854;-27
2022/04/21 00:49:54;;;;;;;;;;;;;;;;;;346094;28;933;-27
2022/04/21 00:50:04;;;;;;;;;;;;;;;;;;346489;28;881;-27
2022/04/21 00:50:15;;;;;;;;;;;;;;;;;;346595;28;1589;-27
2022/04/21 00:50:37;;;;;;;;;;;;;;;;;;346565;28;992;-27
2022/04/21 00:50:47;;;;;;;;;;;;;;;;;;346507;28;901;-27
2022/04/21 00:50:59;;;;;;;;;;;;;;;;;;346638;28;846;-27
2022/04/21 00:51:10;;;;;;;;;;;;;;;;;;346543;28;898;-27
2022/04/21 00:51:22;;;;;;;;;;;;;;;;;;346501;28;909;-27
2022/04/21 00:51:32;;;;;;;;;;;;;;;;;;346458;28;803;-27
2022/04/21 00:51:43;;;;;;;;;;;;;;;;;;346553;28;989;-27
2022/04/21 00:51:54;;;;;;;;;;;;;;;;;;346472;28;982;-27
2022/04/21 00:52:04;;;;;;;;;;;;;;;;;;346612;28;846;-27
2022/04/21 00:52:15;;;;;;;;;;;;;;;;;;346589;28;932;-27
2022/04/21 00:52:25;;;;;;;;;;;;;;;;;;346510;28;975;-27
2022/04/21 00:52:36;;;;;;;;;;;;;;;;;;346380;28;905;-27
2022/04/21 00:52:46;;;;;;;;;;;;;;;;;;346597;28;1071;-27
2022/04/21 00:52:58;;;;;;;;;;;;;;;;;;346597;28;902;-27
2022/04/21 00:53:08;;;;;;;;;;;;;;;;;;346427;28;1106;-27
2022/04/21 00:53:19;;;;;;;;;;;;;;;;;;346562;28;929;-27
2022/04/21 00:53:30;;;;;;;;;;;;;;;;;;346602;28;889;-27
2022/04/21 00:53:40;;;;;;;;;;;;;;;;;;346416;28;972;-27
2022/04/21 00:53:50;;;;;;;;;;;;;;;;;;346611;28;842;-27
2022/04/21 00:54:01;;;;;;;;;;;;;;;;;;346632;28;1380;-27
2022/04/21 00:54:11;;;;;;;;;;;;;;;;;;346616;28;799;-27
2022/04/21 00:54:22;;;;;;;;;;;;;;;;;;346494;28;1118;-27
2022/04/21 00:54:32;;;;;;;;;;;;;;;;;;346306;28;1616;-28
2022/04/21 00:54:43;;;;;;;;;;;;;;;;;;346578;28;929;-27
2022/04/21 00:54:53;;;;;;;;;;;;;;;;;;346484;28;863;-27
2022/04/21 00:55:04;;;;;;;;;;;;;;;;;;346621;28;910;-27
2022/04/21 00:55:14;;;;;;;;;;;;;;;;;;346578;28;927;-27
2022/04/21 00:55:25;;;;;;;;;;;;;;;;;;346554;28;898;-27
2022/04/21 00:55:38;;;;;;;;;;;;;;;;;;346439;28;806;-27
2022/04/21 00:55:49;;;;;;;;;;;;;;;;;;346548;28;901;-27
2022/04/21 00:56:02;;;;;;;;;;;;;;;;;;346604;28;886;-27
2022/04/21 00:56:12;;;;;;;;;;;;;;;;;;346547;28;1910;-27
2022/04/21 00:56:23;;;;;;;;;;;;;;;;;;346566;28;803;-27
2022/04/21 00:56:34;;;;;;;;;;;;;;;;;;346386;28;952;-27
2022/04/21 00:56:44;;;;;;;;;;;;;;;;;;346471;28;1006;-28
2022/04/21 00:56:55;;;;;;;;;;;;;;;;;;346613;28;882;-27
2022/04/21 00:57:05;;;;;;;;;;;;;;;;;;346487;28;897;-27
2022/04/21 00:57:16;;;;;;;;;;;;;;;;;;346470;28;894;-28
2022/04/21 00:57:27;;;;;;;;;;;;;;;;;;346612;28;894;-27
2022/04/21 00:57:38;;;;;;;;;;;;;;;;;;346413;28;913;-27
2022/04/21 00:57:50;;;;;;;;;;;;;;;;;;346634;28;873;-27
2022/04/21 00:58:03;;;;;;;;;;;;;;;;;;346605;28;905;-27
2022/04/21 00:58:14;;;;;;;;;;;;;;;;;;346645;28;1004;-27
2022/04/21 00:58:25;;;;;;;;;;;;;;;;;;346511;28;956;-27
2022/04/21 00:58:36;;;;;;;;;;;;;;;;;;346388;28;830;-27
2022/04/21 00:58:47;;;;;;;;;;;;;;;;;;346544;28;842;-27
2022/04/21 00:58:57;;;;;;;;;;;;;;;;;;346614;28;798;-27
2022/04/21 00:59:09;;;;;;;;;;;;;;;;;;346506;28;962;-27
2022/04/21 00:59:19;;;;;;;;;;;;;;;;;;346569;28;1047;-27
2022/04/21 00:59:30;;;;;;;;;;;;;;;;;;346629;28;858;-27
2022/04/21 00:59:42;;;;;;;;;;;;;;;;;;346481;28;1022;-27
2022/04/21 00:59:52;;;;;;;;;;;;;;;;;;346508;28;1166;-27
2022/04/21 01:00:03;;;;;;;;;;;;;;;;;;346641;28;838;-28
2022/04/21 01:00:14;;;;;;;;;;;;;;;;;;346518;28;913;-27
2022/04/21 01:00:25;;;;;;;;;;;;;;;;;;346605;28;849;-28
2022/04/21 01:00:35;;;;;;;;;;;;;;;;;;346401;28;909;-27
2022/04/21 01:00:45;;;;;;;;;;;;;;;;;;345096;28;936;-27
2022/04/21 01:00:56;;;;;;;;;;;;;;;;;;344938;28;929;-27
2022/04/21 01:02:46;;;;;;;;;;;;;;;;;;345060;28;1020;-27
2022/04/21 01:02:54;;;;;;;;;;;;;;;;;;344789;28;1055;-27
2022/04/21 01:03:06;;;;;;;;;;;;;;;;;;346612;28;937;-27
2022/04/21 01:03:16;;;;;;;;;;;;;;;;;;346493;28;1044;-27
2022/04/21 01:03:27;;;;;;;;;;;;;;;;;;346579;28;988;-27
2022/04/21 01:03:37;;;;;;;;;;;;;;;;;;346319;28;898;-27
2022/04/21 01:03:47;;;;;;;;;;;;;;;;;;346526;28;1133;-27
2022/04/21 01:03:58;;;;;;;;;;;;;;;;;;346437;28;940;-27
2022/04/21 01:04:08;;;;;;;;;;;;;;;;;;346628;28;865;-27
2022/04/21 01:04:20;;;;;;;;;;;;;;;;;;346579;28;893;-27
2022/04/21 01:04:30;;;;;;;;;;;;;;;;;;346343;28;989;-27
2022/04/21 01:04:41;;;;;;;;;;;;;;;;;;346610;28;862;-27
2022/04/21 01:04:52;;;;;;;;;;;;;;;;;;346584;28;946;-26
2022/04/21 01:05:02;;;;;;;;;;;;;;;;;;346419;28;964;-27
2022/04/21 01:05:13;;;;;;;;;;;;;;;;;;346485;28;969;-27
2022/04/21 01:05:31;;;;;;;;;;;;;;;;;;346606;28;886;-27
2022/04/21 01:05:41;;;;;;;;;;;;;;;;;;346450;28;971;-27
2022/04/21 01:05:52;;;;;;;;;;;;;;;;;;346525;28;934;-27
2022/04/21 01:06:03;;;;;;;;;;;;;;;;;;346599;28;826;-27
2022/04/21 01:06:14;;;;;;;;;;;;;;;;;;346448;28;1064;-27
2022/04/21 01:06:24;;;;;;;;;;;;;;;;;;345048;28;1268;-27
2022/04/21 01:06:34;;;;;;;;;;;;;;;;;;343510;28;890;-28
2022/04/21 01:06:45;;;;;;;;;;;;;;;;;;343770;28;921;-27
2022/04/21 01:06:57;;;;;;;;;;;;;;;;;;343642;28;1097;-28
2022/04/21 01:07:10;;;;;;;;;;;;;;;;;;343792;28;1020;-28
2022/04/21 01:07:20;;;;;;;;;;;;;;;;;;343747;28;890;-27
2022/04/21 01:07:32;;;;;;;;;;;;;;;;;;343463;28;974;-27
2022/04/21 01:07:42;;;;;;;;;;;;;;;;;;343795;28;1078;-27
2022/04/21 01:07:53;;;;;;;;;;;;;;;;;;343647;28;1118;-27
2022/04/21 01:08:05;;;;;;;;;;;;;;;;;;343702;28;973;-27
2022/04/21 01:08:15;;;;;;;;;;;;;;;;;;343841;28;885;-27
2022/04/21 01:08:25;;;;;;;;;;;;;;;;;;345140;28;827;-27
2022/04/21 01:08:37;;;;;;;;;;;;;;;;;;346257;28;953;-27
2022/04/21 01:08:48;;;;;;;;;;;;;;;;;;346586;28;985;-27
2022/04/21 01:08:58;;;;;;;;;;;;;;;;;;346442;28;815;-27
2022/04/21 01:09:09;;;;;;;;;;;;;;;;;;346525;28;850;-26
2022/04/21 01:09:19;;;;;;;;;;;;;;;;;;346421;28;1100;-26
2022/04/21 01:09:29;;;;;;;;;;;;;;;;;;346621;28;826;-27
2022/04/21 01:09:40;;;;;;;;;;;;;;;;;;346360;28;811;-27
2022/04/21 01:09:53;;;;;;;;;;;;;;;;;;346541;28;1118;-27
2022/04/21 01:10:04;;;;;;;;;;;;;;;;;;346575;28;830;-27
2022/04/21 01:10:15;;;;;;;;;;;;;;;;;;346482;28;918;-28
2022/04/21 01:10:29;;;;;;;;;;;;;;;;;;346508;28;935;-27
2022/04/21 01:10:42;;;;;;;;;;;;;;;;;;346369;28;806;-27
2022/04/21 01:10:52;;;;;;;;;;;;;;;;;;346648;28;913;-27
2022/04/21 01:11:03;;;;;;;;;;;;;;;;;;346417;28;1030;-27
2022/04/21 01:11:13;;;;;;;;;;;;;;;;;;346620;28;866;-27
2022/04/21 01:11:24;;;;;;;;;;;;;;;;;;346659;28;802;-27
2022/04/21 01:11:34;;;;;;;;;;;;;;;;;;346349;28;883;-27
2022/04/21 01:11:45;;;;;;;;;;;;;;;;;;346447;28;950;-27
2022/04/21 01:11:55;;;;;;;;;;;;;;;;;;346542;28;878;-27
2022/04/21 01:12:09;;;;;;;;;;;;;;;;;;346614;28;878;-27
2022/04/21 01:12:19;;;;;;;;;;;;;;;;;;346396;28;970;-27
2022/04/21 01:12:30;;;;;;;;;;;;;;;;;;346628;28;830;-27
2022/04/21 01:12:41;;;;;;;;;;;;;;;;;;346571;28;925;-27
2022/04/21 01:12:52;;;;;;;;;;;;;;;;;;346474;28;945;-27
2022/04/21 01:13:06;;;;;;;;;;;;;;;;;;346478;28;930;-27
2022/04/21 01:13:16;;;;;;;;;;;;;;;;;;346605;28;938;-27
2022/04/21 01:13:27;;;;;;;;;;;;;;;;;;346510;28;1147;-27
2022/04/21 01:13:37;;;;;;;;;;;;;;;;;;346366;28;949;-26
2022/04/21 01:13:48;;;;;;;;;;;;;;;;;;346633;28;798;-27
2022/04/21 01:13:59;;;;;;;;;;;;;;;;;;346607;28;798;-27
2022/04/21 01:14:10;;;;;;;;;;;;;;;;;;344887;28;2006;-27
2022/04/21 01:14:21;;;;;;;;;;;;;;;;;;345047;28;969;-27
2022/04/21 01:14:31;;;;;;;;;;;;;;;;;;344871;28;978;-27
2022/04/21 01:14:41;;;;;;;;;;;;;;;;;;344920;28;987;-27
2022/04/21 01:14:52;;;;;;;;;;;;;;;;;;345098;28;842;-27
2022/04/21 01:15:03;;;;;;;;;;;;;;;;;;345113;28;882;-27
2022/04/21 01:15:13;;;;;;;;;;;;;;;;;;345031;28;1480;-27
2022/04/21 01:15:23;;;;;;;;;;;;;;;;;;345116;28;921;-27
2022/04/21 01:15:34;;;;;;;;;;;;;;;;;;344858;28;818;-27
2022/04/21 01:15:45;;;;;;;;;;;;;;;;;;345033;28;811;-27
2022/04/21 01:15:55;;;;;;;;;;;;;;;;;;344945;28;1172;-27
2022/04/21 01:16:06;;;;;;;;;;;;;;;;;;345035;28;913;-27
2022/04/21 01:16:16;;;;;;;;;;;;;;;;;;345048;28;1906;-27
2022/04/21 01:16:27;;;;;;;;;;;;;;;;;;345007;28;1204;-26
2022/04/21 01:16:37;;;;;;;;;;;;;;;;;;344926;28;850;-28
2022/04/21 01:16:47;;;;;;;;;;;;;;;;;;345094;28;1072;-27
2022/04/21 01:17:01;;;;;;;;;;;;;;;;;;345051;28;850;-27
2022/04/21 01:17:11;;;;;;;;;;;;;;;;;;345055;28;882;-27
2022/04/21 01:17:42;;;;;;;;;;;;;;;;;;345101;28;945;-27
2022/04/21 01:17:53;;;;;;;;;;;;;;;;;;346186;28;1858;-27
2022/04/21 01:18:04;;;;;;;;;;;;;;;;;;346512;28;938;-27
2022/04/21 01:18:14;;;;;;;;;;;;;;;;;;346375;28;1136;-27
2022/04/21 01:18:28;;;;;;;;;;;;;;;;;;346477;28;819;-27
2022/04/21 01:18:38;;;;;;;;;;;;;;;;;;346359;28;846;-27
2022/04/21 01:18:48;;;;;;;;;;;;;;;;;;346478;28;997;-27
2022/04/21 01:18:59;;;;;;;;;;;;;;;;;;346597;28;873;-27
2022/04/21 01:19:09;;;;;;;;;;;;;;;;;;346446;28;949;-27
2022/04/21 01:19:19;;;;;;;;;;;;;;;;;;346579;28;930;-27
2022/04/21 01:19:30;;;;;;;;;;;;;;;;;;346398;28;1170;-27
2022/04/21 01:19:40;;;;;;;;;;;;;;;;;;346393;28;965;-27
2022/04/21 01:19:50;;;;;;;;;;;;;;;;;;346609;28;921;-27
2022/04/21 01:20:01;;;;;;;;;;;;;;;;;;346408;28;934;-26
2022/04/21 01:20:15;;;;;;;;;;;;;;;;;;346373;28;1614;-27
2022/04/21 01:20:26;;;;;;;;;;;;;;;;;;346595;28;894;-27
2022/04/21 01:20:37;;;;;;;;;;;;;;;;;;346258;28;1049;-27
2022/04/21 01:20:47;;;;;;;;;;;;;;;;;;346547;28;858;-27
2022/04/21 01:20:57;;;;;;;;;;;;;;;;;;346531;28;890;-27